Portada
METAR-TAF:

METAR-TAF

Aeroports :

Aeroport d'Amsterdam-Schiphol

Amsterdam, Països Baixos

latitud: 52-18N, longitud: 004-46E, altitud: -4 m

Observació

L'informe es va fer fa 13 minuts, a les 04:25 UTC
Vent 5 kt del Est
Temperatura 9°C
Humitat 76%
Pressió 1020 hPa
Visibilitat 10 km o més
sense núvols per sota de 1500 mi sense presència de cumulonimbus.

METAR: EHAM 210425Z 09005KT CAVOK 09/05 Q1020 NOSIG

Hora: 06:38 (04:38 UTC)

Pronòstic

L'informe es va fer fa 5 hores i 50 minuts, a les 22:48 UTC
Pronòstic vàlid del 21 a les 00 UTC al 22 a les 06 UTC
Vent 8 kt del Est/Sud-Est
Visibilitat 10 km o més
sense núvols per sota de 1500 mi sense presència de cumulonimbus.

TAF: EHAM 202248Z 2100/2206 11008KT CAVOK

Observacions i pronòstics meteorològics de més de 4000 aeroports (METAR i TAF).

Les estacions disponibles són els punts grocs i vermells al mapa.

Posi el ratolí al punt desitjat per veure el nom de l'estació.

Feu clic per veure les observacions i els pronòstics meteorològics.

Per canviar el mapa: feu clic els botons verds amb una creu de color negre per apropar; al botó verd amb un guió per allunyar la imatge; o en les fletxes verdes per a mapes adjacents.


METAR-TAF: